sensor_id;sensor_type;location;lat;lon;timestamp;pressure;altitude;pressure_sealevel;temperature;humidity
53647;BME280;39550;52.230;5.194;2023-02-16T00:01:34;102244.94;;;5.13;84.93
53647;BME280;39550;52.230;5.194;2023-02-16T00:04:00;102243.16;;;5.11;84.63
53647;BME280;39550;52.230;5.194;2023-02-16T00:06:27;102246.50;;;5.10;84.82
53647;BME280;39550;52.230;5.194;2023-02-16T00:08:54;102244.75;;;5.09;85.22
53647;BME280;39550;52.230;5.194;2023-02-16T00:11:32;102245.66;;;5.10;85.23
53647;BME280;39550;52.230;5.194;2023-02-16T00:14:18;102242.31;;;5.11;84.66
53647;BME280;39550;52.230;5.194;2023-02-16T00:16:47;102243.97;;;5.10;85.09
53647;BME280;39550;52.230;5.194;2023-02-16T00:19:16;102241.41;;;5.10;84.42
53647;BME280;39550;52.230;5.194;2023-02-16T00:21:43;102243.00;;;5.08;84.46
53647;BME280;39550;52.230;5.194;2023-02-16T00:24:08;102237.91;;;5.08;84.30
53647;BME280;39550;52.230;5.194;2023-02-16T00:26:34;102236.13;;;5.07;84.49
53647;BME280;39550;52.230;5.194;2023-02-16T00:28:59;102239.56;;;5.08;85.06
53647;BME280;39550;52.230;5.194;2023-02-16T00:31:26;102240.47;;;5.08;84.78
53647;BME280;39550;52.230;5.194;2023-02-16T00:33:53;102243.00;;;5.08;85.21
53647;BME280;39550;52.230;5.194;2023-02-16T00:36:19;102238.69;;;5.07;84.53
53647;BME280;39550;52.230;5.194;2023-02-16T00:38:45;102235.34;;;5.08;84.75
53647;BME280;39550;52.230;5.194;2023-02-16T00:41:15;102240.38;;;5.07;84.98
53647;BME280;39550;52.230;5.194;2023-02-16T00:44:02;102232.78;;;5.08;84.89
53647;BME280;39550;52.230;5.194;2023-02-16T00:46:27;102232.72;;;5.07;84.32
53647;BME280;39550;52.230;5.194;2023-02-16T00:48:52;102231.75;;;5.05;85.09
53647;BME280;39550;52.230;5.194;2023-02-16T00:51:18;102220.81;;;5.07;84.19
53647;BME280;39550;52.230;5.194;2023-02-16T00:53:43;102229.25;;;5.06;84.96
53647;BME280;39550;52.230;5.194;2023-02-16T00:56:12;102219.03;;;5.06;84.82
53647;BME280;39550;52.230;5.194;2023-02-16T01:04:27;102221.53;;;5.05;84.80
53647;BME280;39550;52.230;5.194;2023-02-16T01:06:52;102223.22;;;5.04;84.60
53647;BME280;39550;52.230;5.194;2023-02-16T01:09:36;102211.22;;;5.03;84.76
53647;BME280;39550;52.230;5.194;2023-02-16T01:12:20;102214.66;;;5.04;84.91
53647;BME280;39550;52.230;5.194;2023-02-16T01:14:50;102190.22;;;4.92;84.95
53647;BME280;39550;52.230;5.194;2023-02-16T01:17:16;102185.66;;;4.87;84.36
53647;BME280;39550;52.230;5.194;2023-02-16T01:19:45;102154.38;;;4.74;84.13
53647;BME280;39550;52.230;5.194;2023-02-16T01:22:10;102134.91;;;4.60;84.63
53647;BME280;39550;52.230;5.194;2023-02-16T01:24:36;102135.06;;;4.63;85.13
53647;BME280;39550;52.230;5.194;2023-02-16T01:27:02;102202.50;;;5.00;84.97
53647;BME280;39550;52.230;5.194;2023-02-16T01:29:28;102128.59;;;4.53;84.30
53647;BME280;39550;52.230;5.194;2023-02-16T01:31:56;102210.28;;;5.01;84.41
53647;BME280;39550;52.230;5.194;2023-02-16T01:34:22;102204.28;;;5.01;84.73
53647;BME280;39550;52.230;5.194;2023-02-16T01:36:49;102174.50;;;4.85;84.73
53647;BME280;39550;52.230;5.194;2023-02-16T01:39:17;102125.41;;;4.57;84.22
53647;BME280;39550;52.230;5.194;2023-02-16T01:44:42;102132.34;;;4.60;85.12
53647;BME280;39550;52.230;5.194;2023-02-16T01:47:20;102150.69;;;4.69;84.84
53647;BME280;39550;52.230;5.194;2023-02-16T01:49:49;102198.28;;;5.00;84.58
53647;BME280;39550;52.230;5.194;2023-02-16T01:52:38;102172.59;;;4.81;85.00
53647;BME280;39550;52.230;5.194;2023-02-16T01:57:51;102142.56;;;4.76;84.23
53647;BME280;39550;52.230;5.194;2023-02-16T02:03:03;102138.09;;;4.72;84.41
53647;BME280;39550;52.230;5.194;2023-02-16T02:05:48;102188.88;;;4.99;84.52
53647;BME280;39550;52.230;5.194;2023-02-16T02:11:02;102176.09;;;4.99;84.86
53647;BME280;39550;52.230;5.194;2023-02-16T02:13:43;102177.72;;;4.97;85.10
53647;BME280;39550;52.230;5.194;2023-02-16T02:16:10;102155.03;;;4.87;84.68
53647;BME280;39550;52.230;5.194;2023-02-16T02:18:36;102181.19;;;4.99;84.42
53647;BME280;39550;52.230;5.194;2023-02-16T02:29:12;102164.13;;;4.98;84.80
53647;BME280;39550;52.230;5.194;2023-02-16T02:34:53;102136.00;;;4.82;84.34
53647;BME280;39550;52.230;5.194;2023-02-16T02:37:46;102135.22;;;4.83;84.32
53647;BME280;39550;52.230;5.194;2023-02-16T02:40:27;102077.38;;;4.50;84.76
53647;BME280;39550;52.230;5.194;2023-02-16T02:43:24;102114.22;;;4.72;85.06
53647;BME280;39550;52.230;5.194;2023-02-16T02:45:56;102131.97;;;4.85;84.53
53647;BME280;39550;52.230;5.194;2023-02-16T02:48:31;102071.56;;;4.53;84.11
53647;BME280;39550;52.230;5.194;2023-02-16T02:51:03;102081.78;;;4.53;83.92
53647;BME280;39550;52.230;5.194;2023-02-16T02:57:05;102140.19;;;4.96;84.62
53647;BME280;39550;52.230;5.194;2023-02-16T03:00:01;102114.00;;;4.84;84.27
53647;BME280;39550;52.230;5.194;2023-02-16T03:02:53;102111.53;;;4.85;84.03
53647;BME280;39550;52.230;5.194;2023-02-16T03:05:21;102109.03;;;4.87;84.12
53647;BME280;39550;52.230;5.194;2023-02-16T03:07:48;102119.25;;;4.87;84.73
53647;BME280;39550;52.230;5.194;2023-02-16T03:10:20;102121.50;;;4.97;84.73
53647;BME280;39550;52.230;5.194;2023-02-16T03:13:12;102107.75;;;4.95;84.03
53647;BME280;39550;52.230;5.194;2023-02-16T03:15:39;102121.50;;;4.97;83.80
53647;BME280;39550;52.230;5.194;2023-02-16T03:18:08;102125.00;;;4.99;84.65
53647;BME280;39550;52.230;5.194;2023-02-16T03:20:54;102121.31;;;4.94;84.71
53647;BME280;39550;52.230;5.194;2023-02-16T03:23:40;102114.16;;;4.87;84.03
53647;BME280;39550;52.230;5.194;2023-02-16T03:26:26;102130.03;;;4.98;84.28
53647;BME280;39550;52.230;5.194;2023-02-16T03:29:11;102122.78;;;4.89;84.59
53647;BME280;39550;52.230;5.194;2023-02-16T03:31:42;102126.63;;;4.97;84.45
53647;BME280;39550;52.230;5.194;2023-02-16T03:34:08;102113.59;;;4.92;84.20
53647;BME280;39550;52.230;5.194;2023-02-16T03:36:39;102089.81;;;4.77;83.95
53647;BME280;39550;52.230;5.194;2023-02-16T03:39:07;102098.53;;;4.81;84.44
53647;BME280;39550;52.230;5.194;2023-02-16T03:41:38;102110.81;;;4.88;84.30
53647;BME280;39550;52.230;5.194;2023-02-16T03:44:04;102079.19;;;4.69;84.31
53647;BME280;39550;52.230;5.194;2023-02-16T03:46:30;102079.19;;;4.69;84.05
53647;BME280;39550;52.230;5.194;2023-02-16T03:48:56;102056.41;;;4.56;84.48
53647;BME280;39550;52.230;5.194;2023-02-16T03:51:22;102092.84;;;4.70;84.39
53647;BME280;39550;52.230;5.194;2023-02-16T03:53:50;102042.19;;;4.45;84.13
53647;BME280;39550;52.230;5.194;2023-02-16T03:56:16;102077.94;;;4.61;84.31
53647;BME280;39550;52.230;5.194;2023-02-16T03:58:49;102052.56;;;4.48;84.23
53647;BME280;39550;52.230;5.194;2023-02-16T04:01:15;102102.28;;;4.71;83.95
53647;BME280;39550;52.230;5.194;2023-02-16T04:03:41;102066.47;;;4.53;84.73
53647;BME280;39550;52.230;5.194;2023-02-16T04:06:07;102056.06;;;4.50;84.22
53647;BME280;39550;52.230;5.194;2023-02-16T04:08:33;102114.00;;;4.84;83.87
53647;BME280;39550;52.230;5.194;2023-02-16T04:10:59;102088.63;;;4.70;84.16
53647;BME280;39550;52.230;5.194;2023-02-16T04:13:25;102066.53;;;4.54;83.98
53647;BME280;39550;52.230;5.194;2023-02-16T04:15:51;102063.09;;;4.54;84.60
53647;BME280;39550;52.230;5.194;2023-02-16T04:18:17;102064.69;;;4.52;84.30
53647;BME280;39550;52.230;5.194;2023-02-16T04:20:42;102133.31;;;4.95;84.19
53647;BME280;39550;52.230;5.194;2023-02-16T04:23:08;102060.59;;;4.55;84.03
53647;BME280;39550;52.230;5.194;2023-02-16T04:25:34;102079.31;;;4.71;84.36
53647;BME280;39550;52.230;5.194;2023-02-16T04:28:00;102135.06;;;4.96;84.48
53647;BME280;39550;52.230;5.194;2023-02-16T04:30:28;102090.47;;;4.73;84.17
53647;BME280;39550;52.230;5.194;2023-02-16T04:32:54;102083.34;;;4.67;84.14
53647;BME280;39550;52.230;5.194;2023-02-16T04:35:23;102079.19;;;4.69;84.46
53647;BME280;39550;52.230;5.194;2023-02-16T04:37:49;102098.19;;;4.74;84.31
53647;BME280;39550;52.230;5.194;2023-02-16T04:40:17;102050.81;;;4.47;84.35
53647;BME280;39550;52.230;5.194;2023-02-16T04:42:43;102131.72;;;4.97;83.93
53647;BME280;39550;52.230;5.194;2023-02-16T04:45:10;102071.31;;;4.65;84.57
53647;BME280;39550;52.230;5.194;2023-02-16T04:47:36;102077.94;;;4.61;84.24
53647;BME280;39550;52.230;5.194;2023-02-16T04:50:03;102061.16;;;4.50;84.64
53647;BME280;39550;52.230;5.194;2023-02-16T04:52:29;102057.03;;;4.52;84.20
53647;BME280;39550;52.230;5.194;2023-02-16T04:54:55;102054.47;;;4.52;84.06
53647;BME280;39550;52.230;5.194;2023-02-16T04:57:20;102101.06;;;4.81;83.62
53647;BME280;39550;52.230;5.194;2023-02-16T04:59:48;102051.13;;;4.53;84.54
53647;BME280;39550;52.230;5.194;2023-02-16T05:02:16;102046.75;;;4.50;84.56
53647;BME280;39550;52.230;5.194;2023-02-16T05:04:42;102122.31;;;4.96;84.16
53647;BME280;39550;52.230;5.194;2023-02-16T05:07:08;102060.88;;;4.60;84.25
53647;BME280;39550;52.230;5.194;2023-02-16T05:09:34;102047.75;;;4.54;84.03
53647;BME280;39550;52.230;5.194;2023-02-16T05:11:59;102058.47;;;4.63;84.52
53647;BME280;39550;52.230;5.194;2023-02-16T05:14:45;102027.25;;;4.52;83.90
53647;BME280;39550;52.230;5.194;2023-02-16T05:17:19;102056.13;;;4.68;84.09
53647;BME280;39550;52.230;5.194;2023-02-16T05:19:47;102022.88;;;4.50;84.37
53647;BME280;39550;52.230;5.194;2023-02-16T05:22:13;102016.19;;;4.52;84.06
53647;BME280;39550;52.230;5.194;2023-02-16T05:24:40;102033.72;;;4.62;84.36
53647;BME280;39550;52.230;5.194;2023-02-16T05:27:09;102084.78;;;4.95;84.29
53647;BME280;39550;52.230;5.194;2023-02-16T05:29:35;102085.56;;;4.94;84.53
53647;BME280;39550;52.230;5.194;2023-02-16T05:32:01;102093.31;;;4.95;83.85
53647;BME280;39550;52.230;5.194;2023-02-16T05:34:26;102018.88;;;4.55;84.15
53647;BME280;39550;52.230;5.194;2023-02-16T05:36:52;102016.81;;;4.48;83.77
53647;BME280;39550;52.230;5.194;2023-02-16T05:39:22;102039.66;;;4.61;84.07
53647;BME280;39550;52.230;5.194;2023-02-16T05:41:48;102015.22;;;4.50;84.69
53647;BME280;39550;52.230;5.194;2023-02-16T05:44:18;102018.59;;;4.49;83.83
53647;BME280;39550;52.230;5.194;2023-02-16T05:46:43;102099.16;;;4.93;84.03
53647;BME280;39550;52.230;5.194;2023-02-16T05:49:11;102023.84;;;4.52;84.52
53647;BME280;39550;52.230;5.194;2023-02-16T05:51:37;102021.16;;;4.49;84.43
53647;BME280;39550;52.230;5.194;2023-02-16T05:54:04;102033.09;;;4.50;84.62
53647;BME280;39550;52.230;5.194;2023-02-16T05:56:30;102062.28;;;4.71;83.71
53647;BME280;39550;52.230;5.194;2023-02-16T05:58:57;102024.63;;;4.51;84.08
53647;BME280;39550;52.230;5.194;2023-02-16T06:01:23;102030.72;;;4.53;84.23
53647;BME280;39550;52.230;5.194;2023-02-16T06:03:49;102028.94;;;4.52;83.81
53647;BME280;39550;52.230;5.194;2023-02-16T06:06:15;102011.38;;;4.41;83.97
53647;BME280;39550;52.230;5.194;2023-02-16T06:08:44;102020.31;;;4.50;84.10
53647;BME280;39550;52.230;5.194;2023-02-16T06:11:11;102102.66;;;4.95;83.86
53647;BME280;39550;52.230;5.194;2023-02-16T06:13:56;102068.59;;;4.78;84.61
53647;BME280;39550;52.230;5.194;2023-02-16T06:16:46;102102.66;;;4.95;84.12
53647;BME280;39550;52.230;5.194;2023-02-16T06:19:21;102032.28;;;4.51;83.96
53647;BME280;39550;52.230;5.194;2023-02-16T06:21:50;102050.16;;;4.67;84.02
53647;BME280;39550;52.230;5.194;2023-02-16T06:24:20;102024.50;;;4.48;84.09
53647;BME280;39550;52.230;5.194;2023-02-16T06:26:46;102055.56;;;4.73;83.77
53647;BME280;39550;52.230;5.194;2023-02-16T06:29:14;102073.69;;;4.78;84.33
53647;BME280;39550;52.230;5.194;2023-02-16T06:31:43;102052.78;;;4.69;83.77
53647;BME280;39550;52.230;5.194;2023-02-16T06:34:08;102076.19;;;4.76;84.21
53647;BME280;39550;52.230;5.194;2023-02-16T06:36:34;102053.50;;;4.66;84.60
53647;BME280;39550;52.230;5.194;2023-02-16T06:38:59;102035.81;;;4.53;83.87
53647;BME280;39550;52.230;5.194;2023-02-16T06:41:27;102064.69;;;4.68;84.29
53647;BME280;39550;52.230;5.194;2023-02-16T06:44:00;102103.53;;;4.95;84.24
53647;BME280;39550;52.230;5.194;2023-02-16T06:46:26;102102.66;;;4.95;84.16
53647;BME280;39550;52.230;5.194;2023-02-16T06:51:28;102115.44;;;4.95;83.95
53647;BME280;39550;52.230;5.194;2023-02-16T06:56:23;102042.44;;;4.49;83.97
53647;BME280;39550;52.230;5.194;2023-02-16T06:58:49;102091.31;;;4.73;83.90
53647;BME280;39550;52.230;5.194;2023-02-16T07:01:17;102098.59;;;4.82;84.28
53647;BME280;39550;52.230;5.194;2023-02-16T07:03:48;102044.00;;;4.47;84.20
53647;BME280;39550;52.230;5.194;2023-02-16T07:06:15;102104.56;;;4.83;84.50
53647;BME280;39550;52.230;5.194;2023-02-16T07:08:40;102114.00;;;4.84;84.20
53647;BME280;39550;52.230;5.194;2023-02-16T07:11:18;102106.00;;;4.77;84.38
53647;BME280;39550;52.230;5.194;2023-02-16T07:16:16;102124.84;;;4.96;84.04
53647;BME280;39550;52.230;5.194;2023-02-16T07:18:41;102123.72;;;4.91;84.54
53647;BME280;39550;52.230;5.194;2023-02-16T07:21:07;102128.19;;;4.95;84.03
53647;BME280;39550;52.230;5.194;2023-02-16T07:23:33;102111.53;;;4.85;83.74
53647;BME280;39550;52.230;5.194;2023-02-16T07:25:58;102093.78;;;4.72;84.78
53647;BME280;39550;52.230;5.194;2023-02-16T07:28:24;102105.69;;;4.88;84.89
53647;BME280;39550;52.230;5.194;2023-02-16T07:30:50;102140.66;;;5.05;84.49
53647;BME280;39550;52.230;5.194;2023-02-16T07:33:16;102132.50;;;4.96;84.38
53647;BME280;39550;52.230;5.194;2023-02-16T07:35:42;102048.31;;;4.48;83.74
53647;BME280;39550;52.230;5.194;2023-02-16T07:38:08;102142.25;;;5.03;83.74
53647;BME280;39550;52.230;5.194;2023-02-16T07:40:34;102119.25;;;4.87;84.31
53647;BME280;39550;52.230;5.194;2023-02-16T07:43:01;102132.19;;;4.90;83.91
53647;BME280;39550;52.230;5.194;2023-02-16T07:45:27;102151.53;;;5.01;83.88
53647;BME280;39550;52.230;5.194;2023-02-16T07:47:53;102128.69;;;4.88;84.12
53647;BME280;39550;52.230;5.194;2023-02-16T07:50:19;102063.63;;;4.48;84.23
53647;BME280;39550;52.230;5.194;2023-02-16T07:52:44;102146.16;;;4.97;84.04
53647;BME280;39550;52.230;5.194;2023-02-16T07:55:10;102122.31;;;4.80;84.47
53647;BME280;39550;52.230;5.194;2023-02-16T07:57:37;102124.78;;;4.78;84.70
53647;BME280;39550;52.230;5.194;2023-02-16T08:00:07;102044.91;;;4.31;84.11
53647;BME280;39550;52.230;5.194;2023-02-16T08:02:33;102159.00;;;4.98;84.45
53647;BME280;39550;52.230;5.194;2023-02-16T08:04:59;102115.13;;;4.72;83.87
53647;BME280;39550;52.230;5.194;2023-02-16T08:07:25;102151.19;;;4.95;84.87
53647;BME280;39550;52.230;5.194;2023-02-16T08:09:50;102094.19;;;4.63;84.66
53647;BME280;39550;52.230;5.194;2023-02-16T08:12:16;102124.94;;;4.81;84.76
53647;BME280;39550;52.230;5.194;2023-02-16T08:14:42;102160.63;;;4.96;84.54
53647;BME280;39550;52.230;5.194;2023-02-16T08:17:08;102166.66;;;4.98;84.43
53647;BME280;39550;52.230;5.194;2023-02-16T08:19:34;102136.75;;;4.79;84.72
53647;BME280;39550;52.230;5.194;2023-02-16T08:22:01;102173.63;;;5.01;84.26
53647;BME280;39550;52.230;5.194;2023-02-16T08:24:27;102172.59;;;4.97;84.51
53647;BME280;39550;52.230;5.194;2023-02-16T08:26:53;102149.75;;;4.84;84.17
53647;BME280;39550;52.230;5.194;2023-02-16T08:29:20;102173.53;;;4.99;84.62
53647;BME280;39550;52.230;5.194;2023-02-16T08:31:46;102086.38;;;4.43;84.82
53647;BME280;39550;52.230;5.194;2023-02-16T08:34:14;102165.56;;;4.93;84.60
53647;BME280;39550;52.230;5.194;2023-02-16T08:36:41;102179.44;;;4.98;84.35
53647;BME280;39550;52.230;5.194;2023-02-16T08:39:19;102183.84;;;5.01;84.06
53647;BME280;39550;52.230;5.194;2023-02-16T08:41:46;102169.72;;;4.91;84.25
53647;BME280;39550;52.230;5.194;2023-02-16T08:44:13;102117.09;;;4.62;83.99
53647;BME280;39550;52.230;5.194;2023-02-16T08:46:41;102192.28;;;5.00;84.36
53647;BME280;39550;52.230;5.194;2023-02-16T08:49:07;102138.09;;;4.72;84.48
53647;BME280;39550;52.230;5.194;2023-02-16T08:51:35;102157.50;;;4.85;84.72
53647;BME280;39550;52.230;5.194;2023-02-16T08:54:03;102180.06;;;4.94;84.37
53647;BME280;39550;52.230;5.194;2023-02-16T08:56:30;102127.31;;;4.62;84.47
53647;BME280;39550;52.230;5.194;2023-02-16T08:58:56;102199.88;;;4.98;84.21
53647;BME280;39550;52.230;5.194;2023-02-16T09:01:21;102175.59;;;4.90;84.72
53647;BME280;39550;52.230;5.194;2023-02-16T09:03:48;102163.16;;;4.80;84.30
53647;BME280;39550;52.230;5.194;2023-02-16T09:06:16;102194.97;;;5.01;84.20
53647;BME280;39550;52.230;5.194;2023-02-16T09:08:42;102188.09;;;5.00;84.58
53647;BME280;39550;52.230;5.194;2023-02-16T09:11:11;102191.50;;;5.01;84.43
53647;BME280;39550;52.230;5.194;2023-02-16T09:13:38;102182.81;;;4.97;84.24
53647;BME280;39550;52.230;5.194;2023-02-16T09:16:06;102184.72;;;5.01;84.94
53647;BME280;39550;52.230;5.194;2023-02-16T09:18:33;102137.41;;;4.75;84.30
53647;BME280;39550;52.230;5.194;2023-02-16T09:21:03;102183.84;;;5.01;84.03
53647;BME280;39550;52.230;5.194;2023-02-16T09:23:31;102170.84;;;4.96;84.85
53647;BME280;39550;52.230;5.194;2023-02-16T09:25:58;102088.94;;;4.43;84.39
53647;BME280;39550;52.230;5.194;2023-02-16T09:28:26;102111.44;;;4.67;84.97
53647;BME280;39550;52.230;5.194;2023-02-16T09:30:51;102140.66;;;4.89;84.38
53647;BME280;39550;52.230;5.194;2023-02-16T09:33:18;102095.00;;;4.62;84.38
53647;BME280;39550;52.230;5.194;2023-02-16T09:35:44;102156.28;;;4.95;84.32
53647;BME280;39550;52.230;5.194;2023-02-16T09:38:09;102180.66;;;5.05;84.17
53647;BME280;39550;52.230;5.194;2023-02-16T09:40:36;102181.53;;;5.05;84.81
53647;BME280;39550;52.230;5.194;2023-02-16T09:45:44;102154.59;;;4.95;84.83
53647;BME280;39550;52.230;5.194;2023-02-16T09:48:41;102182.56;;;5.09;84.56
53647;BME280;39550;52.230;5.194;2023-02-16T09:51:25;102157.09;;;4.94;84.56
53647;BME280;39550;52.230;5.194;2023-02-16T09:53:59;102178.16;;;5.06;84.59
53647;BME280;39550;52.230;5.194;2023-02-16T09:56:35;102153.59;;;4.92;84.04
53647;BME280;39550;52.230;5.194;2023-02-16T09:59:10;102188.72;;;5.13;83.69
53647;BME280;39550;52.230;5.194;2023-02-16T10:01:55;102200.69;;;5.14;84.40
53647;BME280;39550;52.230;5.194;2023-02-16T10:04:35;102197.31;;;5.15;84.37
53647;BME280;39550;52.230;5.194;2023-02-16T10:07:31;102190.31;;;5.10;84.11
53647;BME280;39550;52.230;5.194;2023-02-16T10:10:00;102141.47;;;4.88;84.14
53647;BME280;39550;52.230;5.194;2023-02-16T10:12:32;102184.63;;;5.16;83.89
53647;BME280;39550;52.230;5.194;2023-02-16T10:15:13;102194.28;;;5.22;83.49
53647;BME280;39550;52.230;5.194;2023-02-16T10:20:30;102193.50;;;5.23;83.50
53647;BME280;39550;52.230;5.194;2023-02-16T10:26:45;102168.09;;;5.09;84.19
53647;BME280;39550;52.230;5.194;2023-02-16T10:28:54;102163.31;;;5.16;84.35
53647;BME280;39550;52.230;5.194;2023-02-16T10:31:42;102175.69;;;5.24;83.80
53647;BME280;39550;52.230;5.194;2023-02-16T10:42:20;102196.94;;;5.23;83.94
53647;BME280;39550;52.230;5.194;2023-02-16T10:47:40;102159.50;;;5.07;84.71
53647;BME280;39550;52.230;5.194;2023-02-16T10:50:17;102169.22;;;5.15;84.17
53647;BME280;39550;52.230;5.194;2023-02-16T10:52:45;102151.97;;;5.10;84.52
53647;BME280;39550;52.230;5.194;2023-02-16T10:55:11;102095.16;;;4.82;84.12
53647;BME280;39550;52.230;5.194;2023-02-16T10:57:38;102153.97;;;5.16;84.01
53647;BME280;39550;52.230;5.194;2023-02-16T11:00:10;102158.03;;;5.29;84.00
53647;BME280;39550;52.230;5.194;2023-02-16T11:02:40;102143.03;;;5.19;84.35
53647;BME280;39550;52.230;5.194;2023-02-16T11:07:59;102158.97;;;5.31;83.59
53647;BME280;39550;52.230;5.194;2023-02-16T11:10:41;102153.88;;;5.31;83.89
53647;BME280;39550;52.230;5.194;2023-02-16T11:15:49;102145.19;;;5.27;84.62
53647;BME280;39550;52.230;5.194;2023-02-16T11:20:53;102124.63;;;5.26;83.60
53647;BME280;39550;52.230;5.194;2023-02-16T11:23:28;102146.75;;;5.42;83.52
53647;BME280;39550;52.230;5.194;2023-02-16T11:26:06;102128.47;;;5.34;83.75
53647;BME280;39550;52.230;5.194;2023-02-16T11:28:47;102143.16;;;5.38;83.90
53647;BME280;39550;52.230;5.194;2023-02-16T11:31:20;102130.22;;;5.35;84.44
53647;BME280;39550;52.230;5.194;2023-02-16T11:34:00;102140.78;;;5.41;84.09
53647;BME280;39550;52.230;5.194;2023-02-16T11:36:40;102132.84;;;5.37;84.46
53647;BME280;39550;52.230;5.194;2023-02-16T11:39:14;102146.81;;;5.43;83.98
53647;BME280;39550;52.230;5.194;2023-02-16T11:41:51;102137.16;;;5.38;84.36
53647;BME280;39550;52.230;5.194;2023-02-16T11:44:31;102137.56;;;5.45;84.51
53647;BME280;39550;52.230;5.194;2023-02-16T11:46:59;102105.31;;;5.31;84.16
53647;BME280;39550;52.230;5.194;2023-02-16T11:49:30;102135.44;;;5.55;84.69
53647;BME280;39550;52.230;5.194;2023-02-16T11:51:56;102130.19;;;5.52;84.22
53647;BME280;39550;52.230;5.194;2023-02-16T11:54:22;102124.28;;;5.53;83.61
53647;BME280;39550;52.230;5.194;2023-02-16T11:57:06;102120.16;;;5.56;86.03
53647;BME280;39550;52.230;5.194;2023-02-16T11:59:39;102102.72;;;5.48;85.42
53647;BME280;39550;52.230;5.194;2023-02-16T12:02:31;102068.66;;;5.31;85.81
53647;BME280;39550;52.230;5.194;2023-02-16T12:07:47;102096.69;;;5.63;84.84
53647;BME280;39550;52.230;5.194;2023-02-16T12:15:24;102092.72;;;5.70;85.31
53647;BME280;39550;52.230;5.194;2023-02-16T12:21:10;102065.22;;;5.66;86.05
53647;BME280;39550;52.230;5.194;2023-02-16T12:23:50;102073.34;;;5.75;84.85
53647;BME280;39550;52.230;5.194;2023-02-16T12:31:58;102054.28;;;5.87;84.91
53647;BME280;39550;52.230;5.194;2023-02-16T12:44:49;102030.88;;;5.97;85.53
53647;BME280;39550;52.230;5.194;2023-02-16T12:47:28;101937.69;;;5.54;84.24
53647;BME280;39550;52.230;5.194;2023-02-16T12:50:00;102024.31;;;6.02;85.34
53647;BME280;39550;52.230;5.194;2023-02-16T12:52:34;102015.81;;;6.03;84.21
53647;BME280;39550;52.230;5.194;2023-02-16T12:57:33;101955.44;;;5.69;84.70
53647;BME280;39550;52.230;5.194;2023-02-16T13:00:13;102007.47;;;6.07;83.42
53647;BME280;39550;52.230;5.194;2023-02-16T13:02:52;102018.28;;;6.20;82.96
53647;BME280;39550;52.230;5.194;2023-02-16T13:05:28;102024.72;;;6.11;84.67
53647;BME280;39550;52.230;5.194;2023-02-16T13:08:05;102026.78;;;6.01;84.88
53647;BME280;39550;52.230;5.194;2023-02-16T13:10:37;102010.66;;;6.02;85.70
53647;BME280;39550;52.230;5.194;2023-02-16T13:13:23;102008.81;;;5.99;85.51
53647;BME280;39550;52.230;5.194;2023-02-16T13:16:13;102008.16;;;6.03;85.32
53647;BME280;39550;52.230;5.194;2023-02-16T13:18:42;102007.22;;;6.01;85.40
53647;BME280;39550;52.230;5.194;2023-02-16T13:35:39;101951.50;;;5.95;85.03
53647;BME280;39550;52.230;5.194;2023-02-16T13:44:02;101956.31;;;6.07;84.67
53647;BME280;39550;52.230;5.194;2023-02-16T13:46:39;101948.56;;;6.06;85.61
53647;BME280;39550;52.230;5.194;2023-02-16T13:49:26;101905.63;;;5.80;85.36
53647;BME280;39550;52.230;5.194;2023-02-16T13:51:53;101950.56;;;6.13;85.06
53647;BME280;39550;52.230;5.194;2023-02-16T13:54:28;101924.31;;;5.97;85.37
53647;BME280;39550;52.230;5.194;2023-02-16T13:56:54;101946.19;;;6.10;85.86
53647;BME280;39550;52.230;5.194;2023-02-16T14:01:56;101935.69;;;6.04;85.28
53647;BME280;39550;52.230;5.194;2023-02-16T14:06:50;101945.41;;;6.11;85.64
53647;BME280;39550;52.230;5.194;2023-02-16T14:30:49;101924.25;;;6.16;86.21
53647;BME280;39550;52.230;5.194;2023-02-16T14:33:17;101916.50;;;6.14;86.69
53647;BME280;39550;52.230;5.194;2023-02-16T14:36:05;101889.19;;;5.95;86.27
53647;BME280;39550;52.230;5.194;2023-02-16T14:41:27;101929.38;;;6.16;87.05
53647;BME280;39550;52.230;5.194;2023-02-16T14:43:58;101889.34;;;5.98;85.88
53647;BME280;39550;52.230;5.194;2023-02-16T14:46:41;101873.59;;;5.89;86.12
53647;BME280;39550;52.230;5.194;2023-02-16T14:49:46;101857.28;;;5.87;86.55
53647;BME280;39550;52.230;5.194;2023-02-16T14:52:28;101928.13;;;6.27;86.54
53647;BME280;39550;52.230;5.194;2023-02-16T15:05:30;101886.38;;;5.89;87.27
53647;BME280;39550;52.230;5.194;2023-02-16T15:08:18;101936.13;;;6.13;87.08
53647;BME280;39550;52.230;5.194;2023-02-16T15:10:47;101931.94;;;6.16;87.12
53647;BME280;39550;52.230;5.194;2023-02-16T15:13:26;101896.41;;;5.84;87.87
53647;BME280;39550;52.230;5.194;2023-02-16T15:15:53;101903.75;;;5.96;88.14
53647;BME280;39550;52.230;5.194;2023-02-16T15:18:32;101923.59;;;6.00;87.97
53647;BME280;39550;52.230;5.194;2023-02-16T15:20:58;101858.94;;;5.65;87.90
53647;BME280;39550;52.230;5.194;2023-02-16T15:23:29;101852.06;;;5.64;88.25
53647;BME280;39550;52.230;5.194;2023-02-16T15:26:03;101935.22;;;6.13;89.10
53647;BME280;39550;52.230;5.194;2023-02-16T15:28:35;101934.34;;;6.12;88.51
53647;BME280;39550;52.230;5.194;2023-02-16T15:31:07;101864.38;;;5.73;88.14
53647;BME280;39550;52.230;5.194;2023-02-16T15:33:43;101934.34;;;6.12;88.60
53647;BME280;39550;52.230;5.194;2023-02-16T15:36:11;101896.06;;;5.96;88.64
53647;BME280;39550;52.230;5.194;2023-02-16T15:39:11;101932.59;;;6.11;88.08
53647;BME280;39550;52.230;5.194;2023-02-16T15:41:39;101926.63;;;6.11;88.22
53647;BME280;39550;52.230;5.194;2023-02-16T15:44:14;101867.94;;;5.76;89.67
53647;BME280;39550;52.230;5.194;2023-02-16T15:46:51;101906.31;;;5.96;89.62
53647;BME280;39550;52.230;5.194;2023-02-16T15:49:27;101921.56;;;6.12;89.82
53647;BME280;39550;52.230;5.194;2023-02-16T15:52:01;101901.47;;;6.02;89.10
53647;BME280;39550;52.230;5.194;2023-02-16T15:54:28;101921.56;;;6.12;88.96
53647;BME280;39550;52.230;5.194;2023-02-16T15:57:06;101924.25;;;6.16;89.28